createdAt,value
2023-04-09T00:03:50.910Z,8.98
2023-04-09T00:22:02.893Z,7.90
2023-04-09T00:27:47.207Z,6.28
2023-04-09T00:33:30.514Z,6.57
2023-04-09T00:39:01.596Z,6.75
2023-04-09T00:44:55.787Z,6.97
2023-04-09T00:50:08.948Z,12.10
2023-04-09T00:55:57.292Z,7.03
2023-04-09T01:07:05.450Z,6.10
2023-04-09T01:12:40.807Z,8.35
2023-04-09T01:18:38.863Z,7.57
2023-04-09T01:24:29.346Z,7.85
2023-04-09T01:36:20.785Z,7.00
2023-04-09T01:41:55.987Z,9.27
2023-04-09T01:53:43.375Z,10.25
2023-04-09T02:17:23.677Z,5.28
2023-04-09T02:23:04.559Z,6.32
2023-04-09T02:35:08.609Z,6.93
2023-04-09T02:40:49.694Z,5.97
2023-04-09T02:46:43.966Z,4.43
2023-04-09T02:52:11.241Z,5.78
2023-04-09T02:57:55.819Z,6.07
2023-04-09T03:03:48.190Z,6.80
2023-04-09T03:09:25.568Z,5.50
2023-04-09T03:27:16.331Z,5.85
2023-04-09T03:32:45.727Z,6.32
2023-04-09T03:44:31.900Z,6.35
2023-04-09T03:50:13.607Z,10.40
2023-04-09T03:55:55.335Z,5.45
2023-04-09T04:01:15.572Z,6.28
2023-04-09T04:07:08.873Z,7.80
2023-04-09T04:12:55.872Z,6.18
2023-04-09T04:18:35.960Z,7.82
2023-04-09T04:23:56.089Z,8.82
2023-04-09T04:29:25.787Z,12.05
2023-04-09T04:34:52.586Z,8.48
2023-04-09T04:40:25.242Z,8.20
2023-04-09T04:51:57.762Z,6.55
2023-04-09T04:57:24.341Z,5.07
2023-04-09T05:03:05.064Z,5.80
2023-04-09T05:15:18.767Z,7.88
2023-04-09T05:20:59.456Z,7.97
2023-04-09T05:26:21.703Z,5.32
2023-04-09T05:31:52.154Z,5.57
2023-04-09T05:37:37.314Z,7.50
2023-04-09T05:49:33.234Z,6.28
2023-04-09T05:55:15.767Z,5.18
2023-04-09T06:01:12.910Z,5.43
2023-04-09T06:07:19.137Z,6.40
2023-04-09T06:12:37.124Z,6.22
2023-04-09T06:17:54.384Z,5.65
2023-04-09T06:23:33.407Z,7.35
2023-04-09T06:29:07.009Z,5.63
2023-04-09T06:34:40.972Z,4.30
2023-04-09T06:46:12.120Z,6.63
2023-04-09T06:57:35.818Z,7.32
2023-04-09T07:03:06.487Z,6.90
2023-04-09T07:13:52.183Z,4.57
2023-04-09T07:19:04.937Z,5.18
2023-04-09T07:24:17.918Z,7.35
2023-04-09T07:35:52.710Z,5.45
2023-04-09T07:41:12.978Z,8.25
2023-04-09T07:52:26.416Z,5.85
2023-04-09T07:57:48.699Z,8.73
2023-04-09T08:03:19.507Z,6.75
2023-04-09T08:08:39.928Z,8.25
2023-04-09T08:13:42.786Z,6.18
2023-04-09T08:18:44.999Z,5.38
2023-04-09T08:23:47.235Z,5.07
2023-04-09T08:28:49.437Z,4.82
2023-04-09T08:33:53.813Z,5.93
2023-04-09T08:38:56.864Z,4.28
2023-04-09T08:43:59.920Z,6.53
2023-04-09T08:49:02.372Z,5.75
2023-04-09T08:54:05.336Z,3.78
2023-04-09T08:59:07.702Z,5.03
2023-04-09T09:04:10.909Z,8.15
2023-04-09T09:09:14.422Z,6.95
2023-04-09T09:14:17.351Z,6.68
2023-04-09T09:19:25.250Z,7.40
2023-04-09T09:24:27.774Z,6.00
2023-04-09T09:29:30.073Z,5.25
2023-04-09T09:34:32.255Z,5.95
2023-04-09T09:39:43.786Z,6.03
2023-04-09T09:44:46.058Z,6.32
2023-04-09T09:49:51.896Z,5.22
2023-04-09T09:54:56.635Z,8.00
2023-04-09T10:00:03.339Z,5.07
2023-04-09T10:05:11.780Z,6.22
2023-04-09T10:10:14.037Z,5.60
2023-04-09T10:15:16.725Z,6.40
2023-04-09T10:20:23.194Z,8.73
2023-04-09T10:25:26.693Z,10.05
2023-04-09T10:30:36.038Z,4.82
2023-04-09T10:35:38.435Z,8.02
2023-04-09T10:40:51.251Z,5.55
2023-04-09T10:45:54.677Z,5.10
2023-04-09T10:50:56.970Z,4.72
2023-04-09T10:55:59.249Z,5.30
2023-04-09T11:01:02.050Z,8.20
2023-04-09T11:06:09.580Z,8.38
2023-04-09T11:11:12.644Z,9.10
2023-04-09T11:16:24.303Z,8.52
2023-04-09T11:21:31.718Z,7.75
2023-04-09T11:26:37.348Z,7.25
2023-04-09T11:31:39.734Z,5.07
2023-04-09T11:36:42.348Z,5.40
2023-04-09T11:41:44.627Z,7.85
2023-04-09T11:46:47.396Z,4.90
2023-04-09T11:51:50.199Z,6.25
2023-04-09T11:56:56.358Z,9.45
2023-04-09T12:01:59.113Z,6.78
2023-04-09T12:07:01.546Z,5.43
2023-04-09T12:12:04.074Z,7.75
2023-04-09T12:17:08.700Z,7.88
2023-04-09T12:22:11.064Z,10.23
2023-04-09T12:27:13.362Z,7.72
2023-04-09T12:32:15.732Z,9.40
2023-04-09T12:37:18.108Z,5.30
2023-04-09T12:42:20.502Z,7.45
2023-04-09T12:47:22.853Z,8.88
2023-04-09T12:52:46.679Z,8.00
2023-04-09T12:57:50.212Z,10.85
2023-04-09T13:02:53.130Z,7.05
2023-04-09T13:07:55.557Z,6.85
2023-04-09T13:13:18.087Z,5.93
2023-04-09T13:18:40.381Z,6.78
2023-04-09T13:23:42.677Z,5.50
2023-04-09T13:28:47.929Z,5.53
2023-04-09T13:33:50.193Z,6.88
2023-04-09T13:38:56.895Z,6.40
2023-04-09T13:44:17.865Z,11.25
2023-04-09T13:49:38.902Z,6.93
2023-04-09T13:54:59.603Z,10.00
2023-04-09T14:00:21.106Z,8.90
2023-04-09T14:05:24.746Z,13.45
2023-04-09T14:10:27.970Z,11.48
2023-04-09T14:15:30.266Z,8.43
2023-04-09T14:20:33.627Z,9.90
2023-04-09T14:25:36.028Z,9.15
2023-04-09T14:30:38.472Z,9.48
2023-04-09T14:35:41.010Z,11.70
2023-04-09T14:40:43.366Z,12.55
2023-04-09T14:45:45.755Z,9.88
2023-04-09T14:50:48.375Z,11.77
2023-04-09T14:55:50.727Z,10.80
2023-04-09T15:00:53.045Z,7.07
2023-04-09T15:05:55.424Z,10.43
2023-04-09T15:10:57.672Z,10.73
2023-04-09T15:16:00.122Z,12.98
2023-04-09T15:21:02.503Z,9.25
2023-04-09T15:26:04.984Z,9.57
2023-04-09T15:31:07.867Z,8.52
2023-04-09T15:36:10.499Z,6.10
2023-04-09T15:41:12.798Z,8.90
2023-04-09T15:46:16.676Z,9.10
2023-04-09T15:51:18.985Z,10.07
2023-04-09T15:56:21.216Z,11.93
2023-04-09T16:01:23.493Z,12.18
2023-04-09T16:06:25.911Z,14.05
2023-04-09T16:11:28.234Z,23.58
2023-04-09T16:16:30.831Z,30.23
2023-04-09T16:21:33.672Z,26.92
2023-04-09T16:26:36.244Z,23.35
2023-04-09T16:31:39.512Z,23.98
2023-04-09T16:36:42.051Z,24.30
2023-04-09T16:41:44.858Z,37.75
2023-04-09T16:46:48.173Z,37.33
2023-04-09T16:51:52.119Z,47.58
2023-04-09T16:56:54.837Z,36.03
2023-04-09T17:01:57.432Z,37.83
2023-04-09T17:07:00.952Z,32.42
2023-04-09T17:12:03.382Z,32.45
2023-04-09T17:17:07.554Z,22.90
2023-04-09T17:22:11.316Z,28.52
2023-04-09T17:27:14.087Z,28.13
2023-04-09T17:32:16.590Z,28.23
2023-04-09T17:37:19.917Z,30.73
2023-04-09T17:42:25.794Z,37.85
2023-04-09T17:47:34.871Z,41.05
2023-04-09T17:52:42.177Z,45.63
2023-04-09T17:57:48.043Z,50.75
2023-04-09T18:02:55.748Z,43.95
2023-04-09T18:08:05.895Z,45.35
2023-04-09T18:13:23.962Z,41.75
2023-04-09T18:18:54.310Z,47.10
2023-04-09T18:24:08.897Z,43.13
2023-04-09T18:35:33.105Z,34.55
2023-04-09T18:41:11.749Z,30.40
2023-04-09T18:47:03.706Z,27.10
2023-04-09T18:52:52.721Z,27.13
2023-04-09T19:04:52.087Z,32.92
2023-04-09T19:10:22.998Z,24.90
2023-04-09T19:16:08.658Z,18.40
2023-04-09T19:21:36.888Z,22.65
2023-04-09T19:38:23.933Z,18.50
2023-04-09T19:43:48.575Z,23.70
2023-04-09T19:49:15.641Z,20.85
2023-04-09T20:07:13.670Z,17.08
2023-04-09T20:13:01.429Z,22.58
2023-04-09T20:30:16.920Z,20.40
2023-04-09T20:42:05.845Z,18.05
2023-04-09T20:47:54.288Z,15.00
2023-04-09T21:17:51.497Z,16.05
2023-04-09T22:03:17.683Z,8.60
2023-04-09T22:09:30.605Z,10.43
2023-04-09T22:15:39.992Z,10.30
2023-04-09T22:21:25.591Z,9.00
2023-04-09T22:27:06.563Z,8.57
2023-04-09T22:32:58.120Z,7.78
2023-04-09T22:38:46.520Z,6.75
2023-04-09T22:44:20.144Z,9.65
2023-04-09T22:50:04.820Z,7.50
2023-04-09T22:55:44.328Z,6.63
2023-04-09T23:01:15.916Z,5.78
2023-04-09T23:06:53.625Z,5.38
2023-04-09T23:18:18.333Z,8.82
2023-04-09T23:24:07.781Z,7.85
2023-04-09T23:35:24.005Z,10.40
2023-04-09T23:40:49.116Z,8.25
2023-04-09T23:57:32.636Z,7.10
